Terminal Aerodrome Forecast
Issued by NWS

Home | Current Version | Previous Version | Text Only | Print | Product List | Glossary Off
Versions: 1 2 3 4 5 6 7 8 9 10 11 12

804
FTUS43 KMPX 152320
TAFRWF
TAF
KRWF 152320Z 1600/1624 26007KT P6SM SKC
     FM161300 22007KT P6SM SKC
     FM161800 20014G22KT P6SM SKC=

USA.gov is the U.S. government's official web portal to all federal, state and local government web resources and services.